Assembly Point, New York
Current Conditions -  °F | °C
As of 7:53 PM on Wednesday 22 Oct 2014 (Local Time) from KGFL Reporting Station
Overcast Overcast  
Wind Chill: 53°   Ceiling: 3600
Heat Index: 53°   Visibility: 10mi
Dew Point: 42°   Wind: 17mph
Humidity: 66%   Direction: 10°N
Pressure: 30.02"   Gusts: 25mph
Location:  43.4218°N, 73.7084°W
Report Text: KGFL 222353Z AUTO 01015G22KT 10SM OVC036 12/06 A3002 RMK AO2 PK WND 35029/2334 SLP168 60001 T01170056 10117 20100 56012
Loading
Personal Weather Stations






























Interactive Weather Map
Tropical Storm Tracking
New forecast layout! Learn more

10-Day Weather Forecast

Advertisements
Track Severe Weather on mobile